Terminal Aerodrome Forecast
Issued by NWS

Home | Current Version | Previous Version | Text Only | Print | Product List | Glossary On
Versions: 1 2 3 4 5 6 7 8 9 10 11 12 13 14 15 16 17 18 19 20 21 22 23 24 25 26 27 28 29 30 31 32 33 34 35 36
000
FTUS41 KRNK 271730
TAFLWB
TAF
KLWB 271730Z 2718/2818 VRB04KT P6SM -SHRA VCTS BKN035CB
      TEMPO 2720/2722 1SM +TSRA OVC015CB
     FM272300 VRB02KT P6SM VCTS OVC060CB
      TEMPO 2723/2724 4SM -SHRA OVC020
     FM280600 00000KT 5SM BR BKN010
     FM280900 00000KT 1/4SM FG OVC008
     FM281200 05005KT P6SM OVC015=

USA.gov is the U.S. government's official web portal to all federal, state and local government web resources and services.